Time;durP1;ratioP1;P1;durP2;ratioP2;P2;SDS_P1;SDS_P2;PMS_P1;PMS_P2;Temp;Humidity;BMP_temperature;BMP_pressure;BME280_temperature;BME280_humidity;BME280_pressure;Samples;Min_cycle;Max_cycle;Signal;HPM_P1;HPM_P2
2022/03/14 00:00:11;;;;;;;8.50;4.70;;;6.10;52.80;;;;;;5099194;28;20190;-53
2022/03/14 00:02:40;;;;;;;5.53;4.10;;;6.00;53.20;;;;;;5096715;28;20221;-53
2022/03/14 00:05:08;;;;;;;6.20;4.13;;;6.00;53.20;;;;;;5103589;28;20197;-51
2022/03/14 00:07:37;;;;;;;6.40;4.50;;;6.00;53.40;;;;;;5090284;28;20201;-50
2022/03/14 00:10:04;;;;;;;6.17;4.17;;;5.90;53.60;;;;;;5102902;28;20264;-52
2022/03/14 00:12:31;;;;;;;5.27;4.47;;;5.80;53.70;;;;;;5106256;28;20579;-49
2022/03/14 00:14:59;;;;;;;6.60;4.40;;;5.80;53.80;;;;;;5101974;28;20244;-47
2022/03/14 00:17:28;;;;;;;5.50;4.60;;;5.80;53.70;;;;;;5104936;28;20201;-49
2022/03/14 00:19:55;;;;;;;6.63;4.13;;;5.80;53.80;;;;;;5094674;28;20205;-52
2022/03/14 00:22:22;;;;;;;7.97;4.57;;;5.70;53.80;;;;;;5104379;28;20233;-50
2022/03/14 00:24:49;;;;;;;6.37;5.07;;;5.70;53.70;;;;;;5075713;28;20212;-50
2022/03/14 00:27:16;;;;;;;8.17;4.67;;;5.70;53.90;;;;;;5100743;28;20197;-48
2022/03/14 00:30:07;;;;;;;10.70;4.40;;;5.70;54.00;;;;;;5103553;28;20274;-54
2022/03/14 00:32:36;;;;;;;6.80;4.53;;;5.60;54.10;;;;;;5102360;28;20205;-48
2022/03/14 00:35:02;;;;;;;7.30;4.67;;;5.60;54.30;;;;;;5095817;28;20648;-47
2022/03/14 00:37:29;;;;;;;7.37;4.47;;;5.60;54.30;;;;;;5100293;28;20193;-48
2022/03/14 00:39:57;;;;;;;6.57;4.63;;;5.50;54.70;;;;;;5086408;28;20205;-46
2022/03/14 00:42:25;;;;;;;6.93;4.63;;;5.50;54.60;;;;;;5099897;28;20224;-50
2022/03/14 00:44:53;;;;;;;7.17;4.70;;;5.50;54.50;;;;;;5098501;28;20221;-45
2022/03/14 00:47:21;;;;;;;7.13;4.73;;;5.50;54.70;;;;;;5098025;28;20189;-50
2022/03/14 00:49:49;;;;;;;7.73;4.73;;;5.40;54.70;;;;;;5099237;28;20283;-48
2022/03/14 00:52:17;;;;;;;7.70;4.73;;;5.40;54.80;;;;;;5095347;28;20185;-51
2022/03/14 00:54:44;;;;;;;5.50;4.33;;;5.40;54.80;;;;;;5089177;28;20201;-46
2022/03/14 00:57:11;;;;;;;6.80;3.73;;;5.40;54.80;;;;;;5098151;28;20205;-46
2022/03/14 00:59:39;;;;;;;7.50;4.73;;;5.40;55.00;;;;;;5102415;28;20291;-46
2022/03/14 01:02:07;;;;;;;5.30;4.30;;;5.40;54.90;;;;;;5099220;28;20661;-43
2022/03/14 01:04:33;;;;;;;5.70;4.57;;;5.40;55.80;;;;;;5095862;28;20227;-52
2022/03/14 01:07:02;;;;;;;6.80;4.50;;;5.40;55.20;;;;;;5097367;28;20830;-50
2022/03/14 01:09:29;;;;;;;7.37;4.17;;;5.30;55.00;;;;;;5079843;28;20253;-51
2022/03/14 01:11:57;;;;;;;6.63;4.40;;;5.40;55.20;;;;;;5104594;28;20197;-44
2022/03/14 01:14:24;;;;;;;7.00;4.10;;;5.30;55.10;;;;;;5100515;28;20219;-45
2022/03/14 01:16:51;;;;;;;8.80;4.77;;;5.30;55.40;;;;;;5103654;28;20693;-47
2022/03/14 01:19:19;;;;;;;5.33;3.87;;;5.30;55.30;;;;;;5096966;28;20193;-50
2022/03/14 01:21:47;;;;;;;7.30;4.20;;;5.30;55.40;;;;;;5103593;28;20205;-49
2022/03/14 01:24:15;;;;;;;8.10;4.13;;;5.30;55.30;;;;;;5101736;28;20220;-48
2022/03/14 01:26:45;;;;;;;6.00;4.53;;;5.30;55.40;;;;;;5079993;28;20213;-46
2022/03/14 01:29:13;;;;;;;6.47;4.53;;;5.30;55.20;;;;;;5101735;28;20202;-49
2022/03/14 01:31:40;;;;;;;7.63;4.47;;;5.30;55.50;;;;;;5102256;28;20870;-47
2022/03/14 01:34:08;;;;;;;6.27;4.63;;;5.30;55.50;;;;;;5103202;28;20629;-51
2022/03/14 01:36:35;;;;;;;6.47;4.50;;;5.20;55.60;;;;;;5096179;28;20200;-48
2022/03/14 01:39:03;;;;;;;7.07;4.60;;;5.20;55.70;;;;;;5103969;28;20205;-47
2022/03/14 01:41:31;;;;;;;6.80;4.80;;;5.10;55.70;;;;;;5085662;28;20219;-47
2022/03/14 01:44:00;;;;;;;6.87;5.00;;;5.20;55.80;;;;;;5103640;28;20858;-47
2022/03/14 01:46:27;;;;;;;7.23;4.97;;;5.10;55.80;;;;;;5099452;28;20202;-46
2022/03/14 01:48:55;;;;;;;5.20;4.33;;;5.10;56.40;;;;;;5102616;28;20207;-49
2022/03/14 01:51:25;;;;;;;7.17;4.30;;;5.10;55.90;;;;;;5094009;28;20292;-46
2022/03/14 01:53:54;;;;;;;7.77;4.27;;;5.10;56.10;;;;;;5103577;28;20213;-47
2022/03/14 01:56:21;;;;;;;7.53;4.83;;;5.10;56.00;;;;;;5099503;28;20196;-49
2022/03/14 01:58:52;;;;;;;7.27;4.10;;;5.00;56.00;;;;;;5088868;28;20674;-49
2022/03/14 02:01:19;;;;;;;7.17;5.07;;;5.00;56.00;;;;;;5099501;28;20204;-48
2022/03/14 02:03:50;;;;;;;8.47;4.73;;;5.10;55.90;;;;;;5102690;28;20226;-45
2022/03/14 02:06:17;;;;;;;6.10;4.43;;;5.10;55.90;;;;;;5096401;28;20207;-48
2022/03/14 02:08:44;;;;;;;6.33;4.80;;;5.10;55.80;;;;;;5101469;28;20200;-46
2022/03/14 02:11:11;;;;;;;7.13;4.50;;;5.10;55.90;;;;;;5101161;28;20216;-51
2022/03/14 02:13:41;;;;;;;5.90;4.40;;;5.00;55.70;;;;;;5087523;27;20304;-45
2022/03/14 02:16:09;;;;;;;6.27;4.93;;;5.00;55.90;;;;;;5101618;28;20308;-50
2022/03/14 02:18:36;;;;;;;6.63;4.53;;;5.00;56.00;;;;;;5101062;28;20211;-46
2022/03/14 02:21:05;;;;;;;6.37;4.87;;;5.00;56.20;;;;;;5102841;28;20200;-46
2022/03/14 02:23:32;;;;;;;9.17;4.87;;;5.00;56.20;;;;;;5093741;28;20716;-47
2022/03/14 02:25:59;;;;;;;7.53;4.80;;;4.90;56.20;;;;;;5102650;28;20205;-46
2022/03/14 02:28:27;;;;;;;6.73;4.57;;;4.90;56.20;;;;;;5084866;28;21025;-47
2022/03/14 02:30:54;;;;;;;5.33;4.63;;;4.90;56.20;;;;;;5102991;28;20224;-49
2022/03/14 02:33:21;;;;;;;6.37;4.40;;;4.90;56.30;;;;;;5099440;28;20224;-50
2022/03/14 02:35:50;;;;;;;5.33;4.60;;;4.90;56.30;;;;;;5102779;28;20283;-47
2022/03/14 02:38:19;;;;;;;8.17;4.80;;;4.80;56.50;;;;;;5094517;28;20202;-52
2022/03/14 02:40:48;;;;;;;6.80;4.93;;;4.80;56.40;;;;;;5100990;28;20228;-50
2022/03/14 02:43:16;;;;;;;5.50;4.40;;;4.80;56.50;;;;;;5100199;28;20307;-53
2022/03/14 02:45:43;;;;;;;8.67;4.70;;;4.80;56.50;;;;;;5087764;28;20261;-47
2022/03/14 02:48:10;;;;;;;7.07;5.20;;;4.80;56.70;;;;;;5101047;28;20227;-51
2022/03/14 02:50:40;;;;;;;7.43;5.00;;;4.80;56.60;;;;;;5100927;28;20200;-48
2022/03/14 02:53:08;;;;;;;9.50;5.30;;;4.80;56.50;;;;;;5101307;28;20244;-47
2022/03/14 02:55:36;;;;;;;6.20;4.63;;;4.80;56.50;;;;;;5095956;28;20199;-47
2022/03/14 02:58:03;;;;;;;7.27;5.43;;;4.80;56.50;;;;;;5102244;28;20203;-50
2022/03/14 03:00:30;;;;;;;6.60;4.80;;;4.80;56.60;;;;;;5083819;28;20212;-48
2022/03/14 03:02:57;;;;;;;6.43;5.13;;;4.70;56.60;;;;;;5103067;28;20224;-49
2022/03/14 03:05:23;;;;;;;7.97;4.97;;;4.70;57.00;;;;;;5099360;28;20257;-46
2022/03/14 03:07:50;;;;;;;7.27;4.70;;;4.60;57.10;;;;;;5102083;28;20246;-50
2022/03/14 03:10:23;;;;;;;7.13;4.97;;;4.60;57.10;;;;;;5094045;28;20212;-50
2022/03/14 03:12:52;;;;;;;7.10;4.90;;;4.60;57.30;;;;;;5102361;28;20216;-47
2022/03/14 03:15:19;;;;;;;7.63;5.00;;;4.50;57.30;;;;;;5091395;28;20681;-46
2022/03/14 03:17:46;;;;;;;7.13;4.90;;;4.50;57.50;;;;;;5104531;28;20671;-46
2022/03/14 03:20:14;;;;;;;6.30;5.00;;;4.50;57.60;;;;;;5104852;28;20205;-49
2022/03/14 03:22:41;;;;;;;6.90;4.83;;;4.40;57.70;;;;;;5104648;28;20225;-44
2022/03/14 03:25:09;;;;;;;9.17;5.27;;;4.40;58.60;;;;;;5104656;28;20215;-50
2022/03/14 03:27:35;;;;;;;6.53;4.80;;;4.40;57.80;;;;;;5099558;28;20583;-48
2022/03/14 03:30:07;;;;;;;7.97;5.30;;;4.40;58.00;;;;;;5105421;28;20203;-48
2022/03/14 03:32:34;;;;;;;8.23;5.60;;;4.40;57.90;;;;;;5088844;28;20223;-45
2022/03/14 03:35:00;;;;;;;9.07;5.07;;;4.30;58.10;;;;;;5106168;28;20199;-47
2022/03/14 03:37:27;;;;;;;6.53;5.40;;;4.30;58.20;;;;;;5101520;28;20189;-45
2022/03/14 03:39:54;;;;;;;6.87;5.10;;;4.30;58.20;;;;;;5105732;28;20197;-46
2022/03/14 03:42:20;;;;;;;9.37;4.87;;;4.20;58.20;;;;;;5096664;28;20212;-51
2022/03/14 03:44:47;;;;;;;8.13;5.20;;;4.20;58.30;;;;;;5104471;28;20319;-44
2022/03/14 03:47:15;;;;;;;6.67;5.63;;;4.20;58.50;;;;;;5095025;28;20202;-50
2022/03/14 03:49:41;;;;;;;9.10;5.20;;;4.10;58.70;;;;;;5101137;28;20893;-45
2022/03/14 03:52:08;;;;;;;7.23;5.17;;;4.10;58.90;;;;;;5104715;28;20201;-48
2022/03/14 03:54:35;;;;;;;7.20;5.47;;;4.00;59.10;;;;;;5103162;28;20253;-51
2022/03/14 03:57:01;;;;;;;9.80;5.57;;;4.00;59.20;;;;;;5105209;28;20208;-44
2022/03/14 03:59:28;;;;;;;7.13;4.87;;;4.00;59.30;;;;;;5096230;28;20289;-46
2022/03/14 04:01:55;;;;;;;9.43;5.10;;;4.00;59.30;;;;;;5106280;28;20207;-48
2022/03/14 04:04:23;;;;;;;7.83;5.20;;;4.00;59.10;;;;;;5087000;28;20726;-47
2022/03/14 04:06:56;;;;;;;8.63;5.10;;;4.00;58.90;;;;;;5102375;28;20200;-44
2022/03/14 04:09:26;;;;;;;6.87;4.97;;;4.00;59.20;;;;;;5101483;28;20194;-50
2022/03/14 04:11:53;;;;;;;7.90;5.43;;;3.90;59.40;;;;;;5105456;28;20680;-45
2022/03/14 04:14:22;;;;;;;7.73;5.33;;;3.90;59.30;;;;;;5095636;28;20216;-46
2022/03/14 04:16:48;;;;;;;9.23;5.30;;;3.90;59.60;;;;;;5105304;28;20200;-45
2022/03/14 04:19:16;;;;;;;7.10;5.33;;;3.80;59.40;;;;;;5093387;28;20206;-49
2022/03/14 04:21:52;;;;;;;8.67;5.73;;;3.80;59.50;;;;;;5101434;28;20292;-47
2022/03/14 04:24:20;;;;;;;6.40;5.20;;;3.80;59.40;;;;;;5100244;28;20235;-53
2022/03/14 04:26:47;;;;;;;11.53;5.80;;;3.80;59.60;;;;;;5104746;28;20194;-45
2022/03/14 04:29:16;;;;;;;8.77;5.63;;;3.70;59.90;;;;;;5096908;28;20291;-50
2022/03/14 04:31:43;;;;;;;7.63;5.03;;;3.70;60.10;;;;;;5104610;28;20219;-47
2022/03/14 04:34:10;;;;;;;6.27;5.30;;;3.70;60.20;;;;;;5097958;28;20227;-51
2022/03/14 04:36:36;;;;;;;6.00;4.90;;;3.70;60.00;;;;;;5095154;28;20207;-44
2022/03/14 04:39:05;;;;;;;9.50;5.53;;;3.60;60.30;;;;;;5104816;28;20565;-52
2022/03/14 04:41:35;;;;;;;9.03;5.50;;;3.60;60.70;;;;;;5097425;28;20922;-44
2022/03/14 04:44:02;;;;;;;10.97;6.23;;;3.50;60.60;;;;;;5092989;28;20233;-45
2022/03/14 04:46:28;;;;;;;7.50;6.50;;;3.50;60.80;;;;;;5094021;28;20386;-44
2022/03/14 04:48:55;;;;;;;9.90;5.60;;;3.50;60.80;;;;;;5105086;28;20662;-47
2022/03/14 04:51:22;;;;;;;6.67;5.50;;;3.40;60.80;;;;;;5086449;28;20216;-44
2022/03/14 04:53:49;;;;;;;8.37;6.03;;;3.40;61.20;;;;;;5104389;28;20216;-48
2022/03/14 04:56:17;;;;;;;7.73;5.67;;;3.30;61.60;;;;;;5101717;28;20279;-47
2022/03/14 04:58:44;;;;;;;8.10;5.37;;;3.20;61.90;;;;;;5104082;28;20206;-44
2022/03/14 05:01:10;;;;;;;7.30;5.47;;;3.20;61.80;;;;;;5094626;28;20216;-49
2022/03/14 05:03:37;;;;;;;8.47;5.63;;;3.20;62.00;;;;;;5102159;28;20218;-49
2022/03/14 05:06:04;;;;;;;9.07;5.60;;;3.20;62.20;;;;;;5102416;28;20196;-46
2022/03/14 05:08:31;;;;;;;7.37;5.73;;;3.10;62.60;;;;;;5089247;28;20191;-44
2022/03/14 05:10:58;;;;;;;8.33;5.60;;;3.10;62.80;;;;;;5104089;28;20202;-44
2022/03/14 05:13:26;;;;;;;11.67;6.03;;;3.00;62.80;;;;;;5100247;28;20224;-45
2022/03/14 05:15:54;;;;;;;9.10;5.90;;;3.00;62.80;;;;;;5098306;28;20602;-46
2022/03/14 05:18:21;;;;;;;8.77;5.90;;;3.00;63.10;;;;;;5100461;28;20194;-50
2022/03/14 05:20:47;;;;;;;8.83;5.83;;;2.90;63.40;;;;;;5104712;28;20208;-46
2022/03/14 05:23:14;;;;;;;7.33;5.70;;;2.90;63.30;;;;;;5086693;28;20237;-52
2022/03/14 05:25:41;;;;;;;9.00;5.63;;;2.90;63.00;;;;;;5102592;28;20187;-48
2022/03/14 05:28:08;;;;;;;8.73;5.97;;;2.90;63.10;;;;;;5102399;28;20207;-52
2022/03/14 05:30:36;;;;;;;9.83;6.27;;;2.90;63.30;;;;;;5100760;28;20194;-45
2022/03/14 05:33:02;;;;;;;10.60;6.50;;;2.90;63.30;;;;;;5098588;28;20308;-50
2022/03/14 05:35:29;;;;;;;8.33;5.87;;;2.80;63.50;;;;;;5099842;28;20836;-46
2022/03/14 05:37:56;;;;;;;10.83;6.30;;;2.80;63.50;;;;;;5088371;28;20567;-41
2022/03/14 05:40:22;;;;;;;10.87;5.97;;;2.80;63.50;;;;;;5098439;28;20204;-44
2022/03/14 05:42:50;;;;;;;9.70;6.00;;;2.80;64.00;;;;;;5103664;28;20217;-48
2022/03/14 05:45:18;;;;;;;7.93;5.87;;;2.70;64.10;;;;;;5099142;28;20221;-53
2022/03/14 05:47:47;;;;;;;9.73;6.10;;;2.60;64.20;;;;;;5097551;28;20206;-46
2022/03/14 05:50:14;;;;;;;11.27;6.40;;;2.60;64.30;;;;;;5102023;28;20281;-53
2022/03/14 05:52:42;;;;;;;10.67;6.77;;;2.60;64.50;;;;;;5100015;28;20230;-48
2022/03/14 05:55:10;;;;;;;11.53;6.50;;;2.60;64.20;;;;;;5087324;28;20640;-51
2022/03/14 05:57:37;;;;;;;10.43;6.63;;;2.60;64.20;;;;;;5100538;28;20202;-44
2022/03/14 06:00:04;;;;;;;10.93;6.40;;;2.60;64.20;;;;;;5103602;28;20197;-48
2022/03/14 06:02:47;;;;;;;9.50;6.23;;;2.60;64.20;;;;;;5093731;28;20230;-46
2022/03/14 06:05:14;;;;;;;10.10;6.27;;;2.60;64.90;;;;;;5094169;28;20210;-46
2022/03/14 06:07:41;;;;;;;11.80;6.77;;;2.60;64.80;;;;;;5097979;28;20638;-48
2022/03/14 06:10:09;;;;;;;12.57;6.60;;;2.60;65.00;;;;;;5082978;28;20269;-46
2022/03/14 06:12:35;;;;;;;11.67;6.77;;;2.50;65.10;;;;;;5103038;28;20701;-51
2022/03/14 06:15:04;;;;;;;9.53;6.53;;;2.50;65.20;;;;;;5100106;28;20679;-52
2022/03/14 06:17:32;;;;;;;13.80;6.83;;;2.60;65.50;;;;;;5096898;28;20280;-44
2022/03/14 06:20:00;;;;;;;7.90;6.13;;;2.60;65.40;;;;;;5094080;28;20677;-48
2022/03/14 06:22:27;;;;;;;11.10;5.97;;;2.60;65.30;;;;;;5102091;28;20217;-48
2022/03/14 06:24:53;;;;;;;10.23;6.83;;;2.60;65.20;;;;;;5094672;28;20208;-49
2022/03/14 06:27:22;;;;;;;9.47;6.37;;;2.70;65.30;;;;;;5092719;28;20917;-47
2022/03/14 06:29:49;;;;;;;10.97;6.53;;;2.70;65.30;;;;;;5102950;28;20198;-46
2022/03/14 06:32:17;;;;;;;10.47;6.30;;;2.80;65.10;;;;;;5100383;28;20191;-45
2022/03/14 06:34:44;;;;;;;10.10;6.27;;;2.80;65.20;;;;;;5103045;28;20194;-45
2022/03/14 06:37:13;;;;;;;10.50;6.70;;;2.90;65.20;;;;;;5092049;28;20934;-47
2022/03/14 06:39:40;;;;;;;9.87;6.47;;;2.90;65.00;;;;;;5103070;28;20203;-42
2022/03/14 06:42:09;;;;;;;11.60;6.80;;;3.00;65.20;;;;;;5076467;28;20211;-42
2022/03/14 06:44:39;;;;;;;9.83;6.50;;;3.10;64.90;;;;;;5102208;28;20292;-40
2022/03/14 06:47:07;;;;;;;14.93;8.53;;;3.20;64.80;;;;;;5097908;28;20199;-42
2022/03/14 06:49:33;;;;;;;15.07;8.43;;;3.30;64.40;;;;;;5102941;28;20199;-41
2022/03/14 06:52:00;;;;;;;15.67;8.77;;;3.30;64.50;;;;;;5094249;28;20604;-42
2022/03/14 06:54:28;;;;;;;9.83;7.07;;;3.40;64.30;;;;;;5100607;28;20703;-41
2022/03/14 06:56:55;;;;;;;13.83;7.27;;;3.50;64.10;;;;;;5084198;28;20228;-42
2022/03/14 06:59:22;;;;;;;10.20;7.00;;;3.60;64.00;;;;;;5094404;28;20532;-42
2022/03/14 07:01:49;;;;;;;10.77;6.83;;;3.70;63.80;;;;;;5102041;28;20222;-41
2022/03/14 07:04:16;;;;;;;12.97;7.07;;;3.80;64.10;;;;;;5100080;28;20250;-41
2022/03/14 07:06:46;;;;;;;13.43;7.23;;;3.90;63.50;;;;;;5102466;28;20288;-42
2022/03/14 07:09:13;;;;;;;12.17;7.37;;;3.90;63.20;;;;;;5093326;28;20196;-41
2022/03/14 07:11:40;;;;;;;15.33;9.90;;;4.10;62.90;;;;;;5087432;28;20222;-42
2022/03/14 07:14:08;;;;;;;11.80;7.90;;;4.20;62.80;;;;;;5098172;28;20861;-41
2022/03/14 07:16:34;;;;;;;11.30;7.20;;;4.20;62.50;;;;;;5101387;28;20661;-40
2022/03/14 07:19:01;;;;;;;11.87;7.70;;;4.40;62.40;;;;;;5100004;28;20216;-41
2022/03/14 07:21:28;;;;;;;12.60;7.27;;;4.50;61.90;;;;;;5102230;28;20204;-41
2022/03/14 07:23:56;;;;;;;11.87;7.40;;;4.60;61.50;;;;;;5093877;28;20242;-41
2022/03/14 07:26:24;;;;;;;13.13;7.03;;;4.70;61.20;;;;;;5085872;28;20221;-41
2022/03/14 07:28:52;;;;;;;12.57;7.63;;;4.70;61.00;;;;;;5086041;28;21720;-42
2022/03/14 07:31:19;;;;;;;10.00;6.73;;;4.80;60.60;;;;;;5102442;28;20291;-41
2022/03/14 07:33:46;;;;;;;11.73;6.93;;;4.80;60.70;;;;;;5096260;28;20757;-45
2022/03/14 07:36:13;;;;;;;14.07;7.63;;;4.90;59.80;;;;;;5084964;28;20290;-42
2022/03/14 07:38:39;;;;;;;10.50;7.27;;;4.90;59.70;;;;;;5091114;28;20203;-41
2022/03/14 07:41:08;;;;;;;12.63;8.00;;;4.90;59.80;;;;;;5081089;28;20205;-41
2022/03/14 07:43:35;;;;;;;11.73;7.40;;;5.00;60.00;;;;;;5082880;28;20309;-42
2022/03/14 07:46:03;;;;;;;12.87;7.10;;;5.00;59.80;;;;;;5097992;28;20215;-41
2022/03/14 07:48:30;;;;;;;11.57;7.37;;;5.00;59.90;;;;;;5101426;28;20611;-43
2022/03/14 07:50:58;;;;;;;11.17;7.40;;;5.00;59.80;;;;;;5099793;28;20201;-40
2022/03/14 07:53:25;;;;;;;11.50;8.23;;;5.00;59.90;;;;;;5101175;28;20217;-42
2022/03/14 07:56:16;;;;;;;13.63;7.00;;;5.00;60.30;;;;;;5083336;28;20241;-42
2022/03/14 07:58:44;;;;;;;11.90;7.80;;;5.00;60.00;;;;;;5075211;28;20219;-40
2022/03/14 08:01:12;;;;;;;10.23;6.73;;;5.10;60.00;;;;;;5092674;28;20217;-41
2022/03/14 08:03:41;;;;;;;12.17;7.40;;;5.10;59.60;;;;;;5096844;28;20216;-41
2022/03/14 08:06:11;;;;;;;13.27;7.40;;;5.20;59.50;;;;;;5099651;28;20204;-41
2022/03/14 08:08:40;;;;;;;11.63;6.60;;;5.20;59.30;;;;;;5095108;28;20196;-40
2022/03/14 08:11:07;;;;;;;10.87;7.27;;;5.30;58.70;;;;;;5097515;28;20197;-41
2022/03/14 08:13:34;;;;;;;10.17;7.23;;;5.40;58.80;;;;;;5078991;28;20217;-42
2022/03/14 08:16:01;;;;;;;17.50;9.83;;;5.50;58.50;;;;;;5102220;28;20196;-41
2022/03/14 08:18:29;;;;;;;14.50;8.87;;;5.60;58.40;;;;;;5088652;28;20204;-44
2022/03/14 08:20:57;;;;;;;9.73;7.33;;;5.80;58.20;;;;;;5104470;28;20691;-43
2022/03/14 08:23:24;;;;;;;10.87;7.83;;;5.90;58.30;;;;;;5100612;28;20228;-41
2022/03/14 08:25:51;;;;;;;13.73;7.80;;;6.00;58.40;;;;;;5104283;27;20609;-43
2022/03/14 08:28:18;;;;;;;12.57;8.03;;;6.20;57.90;;;;;;5086245;28;20300;-41
2022/03/14 08:30:48;;;;;;;12.33;7.90;;;6.30;57.50;;;;;;5099836;28;20208;-40
2022/03/14 08:33:16;;;;;;;12.40;6.87;;;6.40;57.30;;;;;;5096598;28;20720;-41
2022/03/14 08:35:45;;;;;;;8.73;7.00;;;6.50;57.20;;;;;;5107851;27;20185;-40
2022/03/14 08:38:13;;;;;;;10.70;7.40;;;6.50;57.00;;;;;;5102810;28;20198;-58
2022/03/14 08:40:40;;;;;;;11.63;7.23;;;6.60;57.10;;;;;;5099402;27;20313;-52
2022/03/14 08:43:08;;;;;;;11.87;7.03;;;6.60;56.90;;;;;;5095612;28;20316;-57
2022/03/14 08:45:35;;;;;;;11.60;7.63;;;6.70;56.80;;;;;;5086987;28;20221;-57
2022/03/14 08:48:02;;;;;;;14.23;7.63;;;6.80;56.30;;;;;;5098335;28;20201;-56
2022/03/14 08:50:28;;;;;;;9.73;7.30;;;6.80;56.00;;;;;;5093520;28;20193;-55
2022/03/14 08:52:57;;;;;;;10.47;7.77;;;6.80;56.10;;;;;;5103921;28;20328;-58
2022/03/14 08:55:25;;;;;;;10.23;7.43;;;7.00;56.00;;;;;;5096255;28;20212;-58
2022/03/14 08:57:51;;;;;;;10.20;7.07;;;7.10;55.80;;;;;;5097591;28;20684;-56
2022/03/14 09:00:19;;;;;;;8.87;7.20;;;7.30;55.40;;;;;;5086707;28;20197;-58
2022/03/14 09:02:46;;;;;;;10.20;7.07;;;7.50;55.50;;;;;;5091313;28;20229;-44
2022/03/14 09:05:13;;;;;;;10.20;7.40;;;7.60;55.00;;;;;;5102917;28;20206;-41
2022/03/14 09:07:39;;;;;;;11.30;7.40;;;7.70;55.60;;;;;;5101344;28;20189;-41
2022/03/14 09:10:12;;;;;;;11.83;7.17;;;7.80;54.20;;;;;;5103091;28;20193;-42
2022/03/14 09:12:39;;;;;;;10.00;7.20;;;7.80;54.00;;;;;;5094277;28;20537;-41
2022/03/14 09:15:07;;;;;;;12.07;6.93;;;7.90;54.30;;;;;;5086393;28;20208;-42
2022/03/14 09:17:35;;;;;;;12.07;7.27;;;8.00;53.80;;;;;;5091464;28;22713;-44
2022/03/14 09:20:05;;;;;;;19.53;8.37;;;8.00;53.50;;;;;;5095796;28;20208;-44
2022/03/14 09:22:32;;;;;;;20.53;11.90;;;8.10;53.60;;;;;;5099197;28;20242;-41
2022/03/14 09:24:59;;;;;;;14.73;9.50;;;8.20;54.00;;;;;;5102385;28;20209;-40
2022/03/14 09:27:27;;;;;;;10.53;8.13;;;8.30;53.70;;;;;;5096659;28;20944;-40
2022/03/14 09:29:54;;;;;;;12.30;8.77;;;8.30;53.50;;;;;;5094109;28;20201;-40
2022/03/14 09:32:21;;;;;;;9.90;7.00;;;8.20;53.70;;;;;;5085223;28;20205;-44
2022/03/14 09:34:49;;;;;;;12.53;7.83;;;8.30;54.30;;;;;;5097563;28;20190;-41
2022/03/14 09:37:16;;;;;;;11.00;8.20;;;8.40;54.60;;;;;;5098814;28;20193;-41
2022/03/14 09:39:44;;;;;;;12.03;7.57;;;8.50;54.80;;;;;;5102041;28;20189;-42
2022/03/14 09:42:12;;;;;;;12.30;8.10;;;8.50;54.40;;;;;;5095783;28;20193;-42
2022/03/14 09:44:43;;;;;;;12.40;7.97;;;8.60;54.60;;;;;;5093910;28;20215;-41
2022/03/14 09:47:11;;;;;;;10.07;7.80;;;8.60;54.60;;;;;;5078764;28;20204;-44
2022/03/14 09:49:38;;;;;;;10.37;7.60;;;8.70;54.80;;;;;;5092623;28;20295;-45
2022/03/14 09:52:08;;;;;;;12.27;9.03;;;8.80;55.40;;;;;;5103108;27;20201;-44
2022/03/14 09:54:36;;;;;;;8.77;7.27;;;8.80;55.30;;;;;;5095581;28;20925;-45
2022/03/14 09:57:04;;;;;;;10.20;7.47;;;8.80;55.90;;;;;;5101499;28;20214;-44
2022/03/14 09:59:32;;;;;;;11.03;8.00;;;8.80;56.00;;;;;;5093776;28;20209;-43
2022/03/14 10:02:01;;;;;;;10.97;7.07;;;8.80;56.20;;;;;;5087533;28;20474;-42
2022/03/14 10:04:28;;;;;;;11.47;7.70;;;8.90;56.30;;;;;;5099551;27;20209;-42
2022/03/14 10:06:55;;;;;;;12.90;8.10;;;9.00;56.60;;;;;;5096231;28;20221;-42
2022/03/14 10:09:21;;;;;;;11.27;7.03;;;9.00;56.90;;;;;;5098093;28;20197;-43
2022/03/14 10:11:48;;;;;;;10.03;7.17;;;9.10;58.50;;;;;;5098684;28;20201;-41
2022/03/14 10:14:17;;;;;;;8.40;6.63;;;9.20;58.80;;;;;;5096083;28;20213;-41
2022/03/14 10:16:44;;;;;;;8.90;7.67;;;9.30;58.90;;;;;;5101434;28;20216;-42
2022/03/14 10:19:20;;;;;;;12.23;8.00;;;9.20;59.10;;;;;;5086128;28;20829;-44
2022/03/14 10:21:50;;;;;;;15.27;8.90;;;9.20;59.80;;;;;;5096292;28;20201;-41
2022/03/14 10:24:22;;;;;;;13.10;7.80;;;9.40;60.20;;;;;;5093180;28;20224;-42
2022/03/14 10:26:48;;;;;;;11.20;7.40;;;9.50;60.40;;;;;;5102509;28;20223;-42
2022/03/14 10:29:15;;;;;;;12.13;7.40;;;9.60;61.00;;;;;;5099560;28;20201;-44
2022/03/14 10:31:45;;;;;;;8.63;6.97;;;9.60;60.60;;;;;;5096596;28;20201;-47
2022/03/14 10:34:14;;;;;;;8.80;6.43;;;9.50;61.40;;;;;;5085713;28;20723;-42
2022/03/14 10:36:45;;;;;;;9.73;6.93;;;9.40;61.40;;;;;;5089328;28;20537;-45
2022/03/14 10:39:13;;;;;;;9.73;7.57;;;9.50;62.10;;;;;;5094227;28;20623;-41
2022/03/14 10:41:40;;;;;;;8.40;6.43;;;9.50;62.30;;;;;;5100679;28;20197;-43
2022/03/14 10:44:07;;;;;;;9.97;7.37;;;9.50;63.20;;;;;;5101376;28;20278;-41
2022/03/14 10:46:38;;;;;;;11.90;6.60;;;9.50;64.90;;;;;;5093870;28;20209;-41
2022/03/14 10:49:09;;;;;;;7.93;6.70;;;9.50;65.60;;;;;;5087575;28;20220;-44
2022/03/14 10:51:51;;;;;;;11.27;7.37;;;9.50;66.40;;;;;;5100953;28;20820;-44
2022/03/14 10:54:18;;;;;;;12.23;7.00;;;9.50;66.90;;;;;;5090291;28;20227;-43
2022/03/14 10:57:04;;;;;;;10.73;6.57;;;9.50;67.40;;;;;;5096938;28;20204;-42
2022/03/14 10:59:35;;;;;;;10.17;6.77;;;9.60;67.20;;;;;;5100236;28;20276;-42
2022/03/14 11:02:03;;;;;;;8.70;6.50;;;9.60;67.30;;;;;;5095484;28;20197;-45
2022/03/14 11:04:43;;;;;;;8.17;7.17;;;9.60;67.50;;;;;;5085075;28;20804;-44
2022/03/14 11:07:12;;;;;;;8.10;7.03;;;9.60;68.10;;;;;;5099093;28;20217;-42
2022/03/14 11:09:40;;;;;;;9.90;6.73;;;9.60;68.40;;;;;;5093632;28;20202;-44
2022/03/14 11:12:08;;;;;;;9.60;7.20;;;9.70;69.30;;;;;;5100364;28;20205;-42
2022/03/14 11:14:37;;;;;;;9.13;7.23;;;9.70;69.00;;;;;;5097058;28;20193;-42
2022/03/14 11:17:15;;;;;;;9.63;6.17;;;9.60;69.30;;;;;;5095079;28;20197;-42
2022/03/14 11:19:42;;;;;;;9.90;7.20;;;9.70;69.90;;;;;;5082816;28;20223;-42
2022/03/14 11:22:13;;;;;;;11.30;6.90;;;9.70;70.70;;;;;;5099880;28;20204;-45
2022/03/14 11:24:45;;;;;;;10.63;6.60;;;9.70;71.60;;;;;;5090845;28;20282;-43
2022/03/14 11:27:19;;;;;;;10.07;6.63;;;9.60;72.80;;;;;;5093998;28;20273;-42
2022/03/14 11:29:47;;;;;;;9.23;6.63;;;9.60;74.00;;;;;;5092442;28;20197;-43
2022/03/14 11:32:16;;;;;;;14.40;7.23;;;9.70;75.20;;;;;;5096238;28;20206;-42
2022/03/14 11:34:45;;;;;;;7.93;6.37;;;9.70;76.70;;;;;;5091303;28;20201;-44
2022/03/14 11:37:14;;;;;;;9.13;6.03;;;9.70;80.10;;;;;;5103712;28;20193;-43
2022/03/14 11:39:41;;;;;;;7.30;6.60;;;9.60;85.20;;;;;;5095833;28;20718;-42
2022/03/14 11:42:09;;;;;;;9.63;6.67;;;9.70;91.00;;;;;;5104336;28;20369;-41
2022/03/14 11:44:37;;;;;;;10.90;7.13;;;9.60;93.60;;;;;;5104051;28;20197;-43
2022/03/14 11:47:05;;;;;;;6.63;5.93;;;9.60;95.90;;;;;;5097805;28;20959;-41
2022/03/14 11:49:32;;;;;;;7.80;6.13;;;9.60;97.70;;;;;;5099797;28;20566;-42
2022/03/14 11:52:18;;;;;;;9.57;6.40;;;9.60;99.00;;;;;;5092569;27;20296;-45
2022/03/14 11:54:49;;;;;;;7.67;6.53;;;9.50;99.90;;;;;;5095496;28;20296;-42
2022/03/14 11:57:34;;;;;;;10.43;6.67;;;9.50;99.90;;;;;;5096113;28;20830;-41
2022/03/14 12:00:35;;;;;;;10.30;6.37;;;9.50;99.90;;;;;;5100274;28;20568;-41
2022/03/14 12:03:05;;;;;;;8.87;6.10;;;9.50;99.90;;;;;;5094081;28;20689;-42
2022/03/14 12:05:50;;;;;;;8.07;6.60;;;9.60;99.90;;;;;;5083039;28;20212;-40
2022/03/14 12:08:53;;;;;;;8.30;5.73;;;9.60;99.90;;;;;;5098328;28;20880;-43
2022/03/14 12:11:43;;;;;;;7.07;6.10;;;9.60;99.90;;;;;;5092754;28;20231;-42
2022/03/14 12:14:14;;;;;;;9.73;6.20;;;9.60;99.90;;;;;;5102338;28;20213;-43
2022/03/14 12:16:43;;;;;;;6.60;5.97;;;9.60;99.90;;;;;;5100237;28;20276;-43
2022/03/14 12:19:29;;;;;;;8.57;5.93;;;9.60;99.90;;;;;;5096339;28;20205;-44
2022/03/14 12:21:57;;;;;;;7.27;6.37;;;9.60;99.90;;;;;;5091106;28;20894;-43
2022/03/14 12:24:45;;;;;;;8.23;6.00;;;9.70;99.90;;;;;;5100154;28;20212;-42
2022/03/14 12:27:20;;;;;;;9.13;6.80;;;9.80;99.90;;;;;;5095434;28;20563;-42
2022/03/14 12:29:47;;;;;;;9.60;6.97;;;9.80;99.90;;;;;;5104822;28;20253;-43
2022/03/14 12:32:32;;;;;;;12.47;7.10;;;9.80;99.90;;;;;;5096346;28;20193;-41
2022/03/14 12:35:09;;;;;;;9.70;7.17;;;9.90;99.90;;;;;;5096459;28;20197;-41
2022/03/14 12:37:44;;;;;;;9.00;6.70;;;9.90;99.90;;;;;;5094451;28;20206;-42
2022/03/14 12:40:43;;;;;;;8.90;6.87;;;9.90;99.90;;;;;;5096122;28;20205;-42
2022/03/14 12:43:17;;;;;;;8.07;6.80;;;9.90;99.90;;;;;;5089813;28;20226;-41
2022/03/14 12:45:47;;;;;;;9.97;6.43;;;9.90;99.90;;;;;;5104000;27;20197;-41
2022/03/14 12:48:19;;;;;;;8.00;6.60;;;9.90;99.90;;;;;;5095254;28;20197;-41
2022/03/14 12:50:57;;;;;;;7.63;6.70;;;10.00;99.90;;;;;;5090684;28;20198;-41
2022/03/14 12:53:52;;;;;;;10.40;6.00;;;10.00;99.90;;;;;;5100868;28;20216;-42
2022/03/14 12:56:25;;;;;;;9.70;6.67;;;10.00;99.90;;;;;;5088970;28;20188;-42
2022/03/14 12:59:03;;;;;;;10.53;6.67;;;10.10;99.90;;;;;;5105024;28;20288;-44
2022/03/14 13:01:32;;;;;;;7.47;6.37;;;10.10;99.90;;;;;;5095223;28;20212;-45